Twigg, Illinois
Current Conditions -  °F | °C
As of 8:55 PM on Tuesday 21 Oct 2014 (Local Time) from KHSB Reporting Station
Clear Clear  
Wind Chill: 53°   Ceiling: Unl
Heat Index: 53°   Visibility: 10mi
Dew Point: 42°   Wind: 6mph
Humidity: 65%   Direction: 40°NE
Pressure: 30.17"   Gusts: NA
Location:  37.9948°N, 88.5401°W
Report Text: KHSB 220155Z AUTO 04005KT 10SM CLR 12/06 A3017 RMK AO2 T01180055
Loading
Personal Weather Stations






























Interactive Weather Map
Tropical Storm Tracking
New forecast layout! Learn more

10-Day Weather Forecast

Advertisements
Track Severe Weather on mobile